createdAt,value
2022-09-05T00:00:31.469Z,18.30
2022-09-05T00:03:14.183Z,18.20
2022-09-05T00:06:02.209Z,18.20
2022-09-05T00:08:46.672Z,18.20
2022-09-05T00:11:42.487Z,18.20
2022-09-05T00:15:17.611Z,18.20
2022-09-05T00:21:31.545Z,18.20
2022-09-05T00:24:20.228Z,18.10
2022-09-05T00:24:26.449Z,18.10
2022-09-05T00:27:28.265Z,18.00
2022-09-05T00:31:07.590Z,17.90
2022-09-05T00:33:32.095Z,17.90
2022-09-05T00:36:10.009Z,17.80
2022-09-05T00:38:41.779Z,17.70
2022-09-05T00:41:13.079Z,17.70
2022-09-05T00:43:44.141Z,17.70
2022-09-05T00:46:40.623Z,17.70
2022-09-05T00:49:20.231Z,17.70
2022-09-05T00:51:59.756Z,17.60
2022-09-05T00:54:47.658Z,17.50
2022-09-05T00:57:35.786Z,17.50
2022-09-05T01:00:35.895Z,17.40
2022-09-05T01:03:25.445Z,17.40
2022-09-05T01:06:28.654Z,17.40
2022-09-05T01:09:11.027Z,17.30
2022-09-05T01:11:50.100Z,17.30
2022-09-05T01:14:32.969Z,17.30
2022-09-05T01:17:31.994Z,17.20
2022-09-05T01:20:19.386Z,17.20
2022-09-05T01:23:11.800Z,17.20
2022-09-05T01:25:55.175Z,17.20
2022-09-05T01:29:16.716Z,17.30
2022-09-05T01:32:03.597Z,17.20
2022-09-05T01:34:31.922Z,17.10
2022-09-05T01:37:24.905Z,17.20
2022-09-05T01:40:15.353Z,17.10
2022-09-05T01:43:31.522Z,17.20
2022-09-05T01:46:17.724Z,17.20
2022-09-05T01:49:00.032Z,17.20
2022-09-05T01:51:56.990Z,17.10
2022-09-05T01:54:37.684Z,17.10
2022-09-05T01:57:16.061Z,17.10
2022-09-05T01:59:55.686Z,17.10
2022-09-05T02:02:50.400Z,17.10
2022-09-05T02:05:57.325Z,17.00
2022-09-05T02:08:54.159Z,17.00
2022-09-05T02:11:52.403Z,17.00
2022-09-05T02:14:38.326Z,16.90
2022-09-05T02:17:49.968Z,16.90
2022-09-05T02:20:31.533Z,17.00
2022-09-05T02:23:40.315Z,16.90
2022-09-05T02:26:26.036Z,16.90
2022-09-05T02:29:01.476Z,16.90
2022-09-05T02:31:48.400Z,16.90
2022-09-05T02:34:32.174Z,16.90
2022-09-05T02:37:11.637Z,16.90
2022-09-05T02:45:03.003Z,16.80
2022-09-05T02:45:14.498Z,16.80
2022-09-05T02:46:13.888Z,16.80
2022-09-05T02:48:50.027Z,16.80
2022-09-05T02:57:30.047Z,16.80
2022-09-05T02:57:33.494Z,16.80
2022-09-05T02:58:06.553Z,16.70
2022-09-05T03:00:22.100Z,16.70
2022-09-05T03:03:29.268Z,16.70
2022-09-05T03:06:09.672Z,16.60
2022-09-05T03:08:56.063Z,16.50
2022-09-05T03:12:28.393Z,16.40
2022-09-05T03:15:32.909Z,16.30
2022-09-05T03:18:28.012Z,16.30
2022-09-05T03:21:09.664Z,16.20
2022-09-05T03:23:50.200Z,16.10
2022-09-05T03:26:29.357Z,16.00
2022-09-05T03:29:15.388Z,16.00
2022-09-05T03:32:01.960Z,16.00
2022-09-05T03:34:35.370Z,16.00
2022-09-05T03:37:38.989Z,16.00
2022-09-05T03:40:28.083Z,16.00
2022-09-05T03:43:03.783Z,16.00
2022-09-05T03:45:37.842Z,15.90
2022-09-05T03:48:28.386Z,15.80
2022-09-05T03:57:04.558Z,15.90
2022-09-05T03:57:17.335Z,15.80
2022-09-05T03:57:42.191Z,15.80
2022-09-05T04:00:35.175Z,15.80
2022-09-05T04:08:08.729Z,15.70
2022-09-05T04:08:15.213Z,15.80
2022-09-05T04:09:50.617Z,15.90
2022-09-05T04:12:23.211Z,15.90
2022-09-05T04:15:07.471Z,15.90
2022-09-05T04:17:46.974Z,15.90
2022-09-05T04:20:25.746Z,15.90
2022-09-05T04:23:25.107Z,15.90
2022-09-05T04:26:20.376Z,15.80
2022-09-05T04:29:17.835Z,15.80
2022-09-05T04:32:28.526Z,15.70
2022-09-05T04:35:17.205Z,15.70
2022-09-05T04:38:06.105Z,15.70
2022-09-05T04:40:50.321Z,15.70
2022-09-05T04:43:27.844Z,15.60
2022-09-05T04:46:30.078Z,15.60
2022-09-05T04:49:05.273Z,15.60
2022-09-05T04:52:01.627Z,15.60
2022-09-05T04:54:48.777Z,15.50
2022-09-05T04:57:34.981Z,15.50
2022-09-05T05:06:05.029Z,15.60
2022-09-05T05:06:14.815Z,15.60
2022-09-05T05:08:47.721Z,15.90
2022-09-05T05:15:25.999Z,16.00
2022-09-05T05:18:14.367Z,16.00
2022-09-05T05:18:16.111Z,16.00
2022-09-05T05:20:42.319Z,16.20
2022-09-05T05:23:17.117Z,16.30
2022-09-05T05:25:51.574Z,16.30
2022-09-05T05:28:24.364Z,16.40
2022-09-05T05:31:01.697Z,16.50
2022-09-05T05:33:35.096Z,16.70
2022-09-05T05:36:06.314Z,16.80
2022-09-05T05:38:46.599Z,16.90
2022-09-05T05:41:36.465Z,16.90
2022-09-05T05:44:16.090Z,17.00
2022-09-05T05:46:56.598Z,17.10
2022-09-05T05:49:57.558Z,17.10
2022-09-05T05:52:52.828Z,17.00
2022-09-05T05:55:52.148Z,17.00
2022-09-05T05:58:38.759Z,17.20
2022-09-05T06:01:37.884Z,17.30
2022-09-05T06:04:29.234Z,17.20
2022-09-05T06:07:10.050Z,17.20
2022-09-05T06:14:51.957Z,17.30
2022-09-05T06:14:55.516Z,17.40
2022-09-05T06:16:10.705Z,17.60
2022-09-05T06:19:03.822Z,17.70
2022-09-05T06:22:11.512Z,17.90
2022-09-05T06:25:17.693Z,18.10
2022-09-05T06:28:19.309Z,18.30
2022-09-05T06:31:34.738Z,18.50
2022-09-05T06:34:39.040Z,18.60
2022-09-05T06:38:00.060Z,18.50
2022-09-05T06:40:53.920Z,18.30
2022-09-05T06:44:03.282Z,18.20
2022-09-05T06:46:54.331Z,18.20
2022-09-05T06:49:38.739Z,18.20
2022-09-05T06:52:30.386Z,18.30
2022-09-05T06:55:16.933Z,18.40
2022-09-05T06:58:03.614Z,18.40
2022-09-05T07:00:41.974Z,18.40
2022-09-05T07:03:33.667Z,18.50
2022-09-05T07:06:52.330Z,18.70
2022-09-05T07:09:45.996Z,18.80
2022-09-05T07:12:21.985Z,19.00
2022-09-05T07:15:09.453Z,19.10
2022-09-05T07:18:16.292Z,19.10
2022-09-05T07:21:16.653Z,19.30
2022-09-05T07:24:09.921Z,19.40
2022-09-05T07:26:54.786Z,19.50
2022-09-05T07:29:34.568Z,19.70
2022-09-05T07:32:06.359Z,19.80
2022-09-05T07:34:37.299Z,19.90
2022-09-05T07:37:15.071Z,19.90
2022-09-05T07:40:06.702Z,20.00
2022-09-05T07:43:10.158Z,20.20
2022-09-05T07:45:55.761Z,20.40
2022-09-05T07:48:34.866Z,20.50
2022-09-05T07:56:46.796Z,20.70
2022-09-05T07:56:59.651Z,20.80
2022-09-05T07:59:56.069Z,21.00
2022-09-05T08:02:23.913Z,21.10
2022-09-05T08:04:51.679Z,21.30
2022-09-05T08:07:46.922Z,21.30
2022-09-05T08:10:35.927Z,21.50
2022-09-05T08:13:27.435Z,21.60
2022-09-05T08:16:13.264Z,21.80
2022-09-05T08:18:49.909Z,21.90
2022-09-05T08:21:40.569Z,22.10
2022-09-05T08:24:25.733Z,22.20
2022-09-05T08:27:16.969Z,22.40
2022-09-05T08:30:25.163Z,22.50
2022-09-05T08:33:11.378Z,22.60
2022-09-05T08:35:43.541Z,22.80
2022-09-05T08:38:16.436Z,23.00
2022-09-05T08:40:49.726Z,23.10
2022-09-05T08:46:35.773Z,23.10
2022-09-05T08:46:48.378Z,23.30
2022-09-05T08:49:53.968Z,23.50
2022-09-05T08:52:40.232Z,23.60
2022-09-05T08:55:19.907Z,23.80
2022-09-05T08:58:24.821Z,23.90
2022-09-05T09:01:44.558Z,24.00
2022-09-05T09:05:02.199Z,24.10
2022-09-05T09:07:50.893Z,24.10
2022-09-05T09:10:55.497Z,24.20
2022-09-05T09:13:55.431Z,24.30
2022-09-05T09:16:50.037Z,24.40
2022-09-05T09:19:29.567Z,24.40
2022-09-05T09:22:25.208Z,24.50
2022-09-05T09:25:14.188Z,24.60
2022-09-05T09:28:49.914Z,24.70
2022-09-05T09:30:53.196Z,24.60
2022-09-05T09:33:54.412Z,24.60
2022-09-05T09:36:55.825Z,24.70
2022-09-05T09:39:38.619Z,24.60
2022-09-05T09:42:45.420Z,24.60
2022-09-05T09:45:29.509Z,24.70
2022-09-05T09:48:00.528Z,24.80
2022-09-05T09:50:58.413Z,24.90
2022-09-05T09:53:57.985Z,25.00
2022-09-05T09:57:03.184Z,25.00
2022-09-05T09:59:54.723Z,24.90
2022-09-05T10:08:21.344Z,25.10
2022-09-05T10:10:38.088Z,25.30
2022-09-05T10:10:52.607Z,25.60
2022-09-05T10:12:22.842Z,25.70
2022-09-05T10:15:25.433Z,26.00
2022-09-05T10:18:36.964Z,26.10
2022-09-05T10:21:24.859Z,26.30
2022-09-05T10:24:18.421Z,26.50
2022-09-05T10:27:04.356Z,26.70
2022-09-05T10:29:43.905Z,26.80
2022-09-05T10:35:05.712Z,27.00
2022-09-05T10:35:29.285Z,27.10
2022-09-05T10:38:11.357Z,27.30
2022-09-05T10:40:51.428Z,27.50
2022-09-05T10:43:33.230Z,27.60
2022-09-05T10:46:49.092Z,27.90
2022-09-05T10:49:16.401Z,28.20
2022-09-05T10:52:05.397Z,28.40
2022-09-05T10:55:14.677Z,28.50
2022-09-05T10:58:17.211Z,28.90
2022-09-05T11:02:20.026Z,29.20
2022-09-05T11:04:15.938Z,29.80
2022-09-05T11:06:46.624Z,31.90
2022-09-05T11:09:35.930Z,34.00
2022-09-05T11:12:07.086Z,36.20
2022-09-05T11:14:56.212Z,37.40
2022-09-05T11:17:30.362Z,38.40
2022-09-05T11:20:35.235Z,39.80
2022-09-05T11:23:19.437Z,39.30
2022-09-05T11:25:55.865Z,38.80
2022-09-05T11:28:51.016Z,39.60
2022-09-05T11:32:42.152Z,39.70
2022-09-05T11:39:54.097Z,40.30
2022-09-05T11:40:05.033Z,39.70
2022-09-05T11:41:29.944Z,42.30
2022-09-05T11:44:27.045Z,41.60
2022-09-05T11:47:39.317Z,40.90
2022-09-05T11:50:25.261Z,41.90
2022-09-05T11:52:53.728Z,43.30
2022-09-05T11:55:36.371Z,44.10
2022-09-05T11:58:44.945Z,43.60
2022-09-05T12:01:36.825Z,42.10
2022-09-05T12:05:48.291Z,42.00
2022-09-05T12:07:46.140Z,42.00
2022-09-05T12:10:46.330Z,41.20
2022-09-05T12:13:29.211Z,41.90
2022-09-05T12:16:07.672Z,41.10
2022-09-05T12:19:02.801Z,40.10
2022-09-05T12:22:08.884Z,39.40
2022-09-05T12:25:24.888Z,39.80
2022-09-05T12:29:25.973Z,41.50
2022-09-05T12:32:19.542Z,43.00
2022-09-05T12:36:13.058Z,43.60
2022-09-05T12:40:43.555Z,44.50
2022-09-05T12:41:34.560Z,45.70
2022-09-05T12:44:29.952Z,45.10
2022-09-05T12:46:23.774Z,44.10
2022-09-05T12:48:55.098Z,40.70
2022-09-05T12:51:46.896Z,41.00
2022-09-05T12:54:44.379Z,43.10
2022-09-05T13:01:25.773Z,45.30
2022-09-05T13:03:08.220Z,45.80
2022-09-05T13:03:31.708Z,45.00
2022-09-05T13:06:06.421Z,45.40
2022-09-05T13:08:52.842Z,45.80
2022-09-05T13:14:50.709Z,45.40
2022-09-05T13:15:02.797Z,45.30
2022-09-05T13:17:15.872Z,44.80
2022-09-05T13:19:51.250Z,44.60
2022-09-05T13:22:25.874Z,45.30
2022-09-05T13:25:10.050Z,45.80
2022-09-05T13:27:46.581Z,47.40
2022-09-05T13:31:40.646Z,47.50
2022-09-05T13:38:02.655Z,46.70
2022-09-05T13:38:04.969Z,47.10
2022-09-05T13:39:12.821Z,46.30
2022-09-05T13:41:50.721Z,46.70
2022-09-05T13:44:25.671Z,46.40
2022-09-05T13:47:28.979Z,45.60
2022-09-05T13:50:09.087Z,45.10
2022-09-05T13:52:47.875Z,45.50
2022-09-05T13:55:38.864Z,45.80
2022-09-05T13:58:17.232Z,46.80
2022-09-05T14:01:06.344Z,47.10
2022-09-05T14:05:05.217Z,47.30
2022-09-05T14:10:21.649Z,47.40
2022-09-05T14:13:02.390Z,47.30
2022-09-05T14:15:56.500Z,47.10
2022-09-05T14:18:27.199Z,47.60
2022-09-05T14:21:19.017Z,47.70
2022-09-05T14:24:03.348Z,47.20
2022-09-05T14:26:49.708Z,47.50
2022-09-05T14:29:26.314Z,47.80
2022-09-05T14:37:41.894Z,47.10
2022-09-05T14:37:54.598Z,47.60
2022-09-05T14:38:19.670Z,47.00
2022-09-05T14:41:24.990Z,47.30
2022-09-05T14:44:27.580Z,47.30
2022-09-05T14:47:34.949Z,48.00
2022-09-05T14:50:29.734Z,48.10
2022-09-05T15:01:34.485Z,44.50
2022-09-05T15:16:20.398Z,46.70
2022-09-05T15:18:51.223Z,43.50
2022-09-05T15:21:34.060Z,41.80
2022-09-05T15:24:16.992Z,40.00
2022-09-05T15:26:56.909Z,40.70
2022-09-05T15:29:34.388Z,42.40
2022-09-05T15:32:21.272Z,44.20
2022-09-05T15:34:50.699Z,46.20
2022-09-05T15:37:40.523Z,47.40
2022-09-05T15:40:24.073Z,47.70
2022-09-05T15:42:59.165Z,47.30
2022-09-05T15:45:36.249Z,47.40
2022-09-05T15:48:22.571Z,45.10
2022-09-05T15:50:55.431Z,42.60
2022-09-05T15:53:29.388Z,41.00
2022-09-05T15:56:19.720Z,40.80
2022-09-05T15:58:55.269Z,40.70
2022-09-05T16:01:59.077Z,41.70
2022-09-05T16:09:45.158Z,41.60
2022-09-05T16:10:37.856Z,41.90
2022-09-05T16:10:40.244Z,42.20
2022-09-05T16:13:15.658Z,43.30
2022-09-05T16:22:17.008Z,44.70
2022-09-05T16:23:32.022Z,46.20
2022-09-05T16:23:32.499Z,45.30
2022-09-05T16:24:58.098Z,46.80
2022-09-05T16:28:03.564Z,47.00
2022-09-05T16:30:39.387Z,46.10
2022-09-05T16:33:20.503Z,45.80
2022-09-05T16:35:57.082Z,45.70
2022-09-05T16:38:49.643Z,45.60
2022-09-05T16:41:44.504Z,44.90
2022-09-05T16:44:24.107Z,42.80
2022-09-05T16:47:11.159Z,40.40
2022-09-05T16:49:53.197Z,38.10
2022-09-05T16:52:32.610Z,36.50
2022-09-05T16:55:08.392Z,35.40
2022-09-05T16:57:51.541Z,34.30
2022-09-05T17:00:25.974Z,33.60
2022-09-05T17:03:28.137Z,33.00
2022-09-05T17:06:32.294Z,32.50
2022-09-05T17:09:13.758Z,32.10
2022-09-05T17:12:00.280Z,31.80
2022-09-05T17:14:42.805Z,31.50
2022-09-05T17:18:20.740Z,31.30
2022-09-05T17:20:20.964Z,31.00
2022-09-05T17:27:29.776Z,30.80
2022-09-05T17:29:20.755Z,30.50
2022-09-05T17:29:47.134Z,30.20
2022-09-05T17:31:58.600Z,30.00
2022-09-05T17:34:30.376Z,29.80
2022-09-05T17:37:25.617Z,29.50
2022-09-05T17:40:06.000Z,29.40
2022-09-05T17:42:43.067Z,29.20
2022-09-05T17:45:23.205Z,29.10
2022-09-05T17:48:03.405Z,28.90
2022-09-05T17:50:33.394Z,28.80
2022-09-05T17:53:25.648Z,28.60
2022-09-05T17:55:57.743Z,28.50
2022-09-05T17:58:38.332Z,28.40
2022-09-05T18:01:26.378Z,28.30
2022-09-05T18:04:16.858Z,28.10
2022-09-05T18:06:58.958Z,27.90
2022-09-05T18:09:37.718Z,27.70
2022-09-05T18:12:07.141Z,27.50
2022-09-05T18:17:42.498Z,27.30
2022-09-05T18:20:39.614Z,27.10
2022-09-05T18:23:39.570Z,27.00
2022-09-05T18:26:22.771Z,26.90
2022-09-05T18:28:50.473Z,26.70
2022-09-05T18:31:45.302Z,26.50
2022-09-05T18:34:19.438Z,26.40
2022-09-05T18:36:49.194Z,26.30
2022-09-05T18:39:26.187Z,26.20
2022-09-05T18:42:26.178Z,26.00
2022-09-05T18:45:16.486Z,25.90
2022-09-05T18:47:57.203Z,25.80
2022-09-05T18:50:34.664Z,25.70
2022-09-05T18:53:12.677Z,25.70
2022-09-05T18:56:12.957Z,25.50
2022-09-05T18:59:12.720Z,25.50
2022-09-05T19:02:08.146Z,25.40
2022-09-05T19:05:01.065Z,25.30
2022-09-05T19:07:41.733Z,25.20
2022-09-05T19:10:36.139Z,25.10
2022-09-05T19:13:19.580Z,25.10
2022-09-05T19:16:06.631Z,25.00
2022-09-05T19:19:31.459Z,24.90
2022-09-05T19:22:39.473Z,24.90
2022-09-05T19:24:50.498Z,24.80
2022-09-05T19:29:44.488Z,24.70
2022-09-05T19:37:12.706Z,24.50
2022-09-05T19:37:14.797Z,24.70
2022-09-05T19:43:42.783Z,24.50
2022-09-05T19:47:27.794Z,24.40
2022-09-05T19:47:38.174Z,24.40
2022-09-05T19:48:03.947Z,24.30
2022-09-05T19:50:33.932Z,24.20
2022-09-05T19:53:07.649Z,24.20
2022-09-05T19:55:38.352Z,24.10
2022-09-05T19:58:20.089Z,24.10
2022-09-05T20:01:08.223Z,24.10
2022-09-05T20:03:43.093Z,24.00
2022-09-05T20:06:29.266Z,23.90
2022-09-05T20:09:15.800Z,23.80
2022-09-05T20:11:59.881Z,23.70
2022-09-05T20:14:32.624Z,23.60
2022-09-05T20:17:26.406Z,23.50
2022-09-05T20:20:08.736Z,23.40
2022-09-05T20:22:49.111Z,23.30
2022-09-05T20:25:39.706Z,23.20
2022-09-05T20:28:10.915Z,23.20
2022-09-05T20:30:45.129Z,23.20
2022-09-05T20:33:18.626Z,23.10
2022-09-05T20:38:50.617Z,23.10
2022-09-05T20:43:23.235Z,23.00
2022-09-05T20:43:24.586Z,22.90
2022-09-05T20:44:25.087Z,22.90
2022-09-05T20:51:26.344Z,22.90
2022-09-05T20:54:14.213Z,22.90
2022-09-05T20:54:15.845Z,22.90
2022-09-05T20:56:48.112Z,22.80
2022-09-05T20:59:37.060Z,22.70
2022-09-05T21:02:07.193Z,22.60
2022-09-05T21:04:38.593Z,22.70
2022-09-05T21:07:22.130Z,22.70
2022-09-05T21:09:56.597Z,22.70
2022-09-05T21:12:29.477Z,22.60
2022-09-05T21:15:22.964Z,22.60
2022-09-05T21:18:17.159Z,22.50
2022-09-05T21:20:56.716Z,22.50
2022-09-05T21:23:28.889Z,22.40
2022-09-05T21:26:01.816Z,22.30
2022-09-05T21:28:36.955Z,22.30
2022-09-05T21:31:14.657Z,22.30
2022-09-05T21:33:45.150Z,22.30
2022-09-05T21:36:15.547Z,22.30
2022-09-05T21:38:43.955Z,22.20
2022-09-05T21:41:15.780Z,22.20
2022-09-05T21:47:39.560Z,22.20
2022-09-05T21:47:39.760Z,22.20
2022-09-05T21:49:23.292Z,22.10
2022-09-05T21:51:51.903Z,22.00
2022-09-05T21:59:17.433Z,21.90
2022-09-05T21:59:25.802Z,21.90
2022-09-05T22:00:16.279Z,22.00
2022-09-05T22:02:49.333Z,22.00
2022-09-05T22:05:17.538Z,22.00
2022-09-05T22:07:45.290Z,21.90
2022-09-05T22:10:13.082Z,21.90
2022-09-05T22:12:41.522Z,21.80
2022-09-05T22:15:29.121Z,21.80
2022-09-05T22:18:17.800Z,21.80
2022-09-05T22:20:53.426Z,21.80
2022-09-05T22:23:40.119Z,21.70
2022-09-05T22:26:07.916Z,21.70
2022-09-05T22:28:48.709Z,21.60
2022-09-05T22:31:20.020Z,21.60
2022-09-05T22:33:51.279Z,21.60
2022-09-05T22:36:19.385Z,21.60
2022-09-05T22:38:47.616Z,21.60
2022-09-05T22:41:15.426Z,21.60
2022-09-05T22:43:46.457Z,21.60
2022-09-05T22:46:14.618Z,21.50
2022-09-05T22:48:42.561Z,21.40
2022-09-05T22:51:10.422Z,21.40
2022-09-05T22:53:38.511Z,21.40
2022-09-05T22:56:08.345Z,21.40
2022-09-05T22:58:44.827Z,21.40
2022-09-05T23:01:12.926Z,21.40
2022-09-05T23:03:40.689Z,21.40
2022-09-05T23:06:10.202Z,21.40
2022-09-05T23:08:37.861Z,21.30
2022-09-05T23:11:17.198Z,21.30
2022-09-05T23:13:44.966Z,21.30
2022-09-05T23:16:12.736Z,21.20
2022-09-05T23:18:40.613Z,21.10
2022-09-05T23:21:11.023Z,21.10
2022-09-05T23:23:41.214Z,21.00
2022-09-05T23:26:11.743Z,21.00
2022-09-05T23:28:43.123Z,21.00
2022-09-05T23:31:12.848Z,20.90
2022-09-05T23:33:41.942Z,21.00
2022-09-05T23:36:13.693Z,21.00
2022-09-05T23:38:44.498Z,21.00
2022-09-05T23:41:14.592Z,21.00
2022-09-05T23:43:42.859Z,20.90
2022-09-05T23:46:10.647Z,20.90
2022-09-05T23:48:38.470Z,20.90
2022-09-05T23:51:11.754Z,20.80
2022-09-05T23:53:40.212Z,20.80
2022-09-05T23:56:09.919Z,20.80
2022-09-05T23:58:38.627Z,20.80
